Accueil
METAR-TAF:

METAR-TAF

Aéroports :

Cassel, Allemagne

latitude: 51-24N, longitude: 009-23E, altitude: 277 m

Observation

Le bulletin a été fait il y a 20 minutes, à 02:20 UTC
Vent 6 kt de est/nord-est
Température -1°C
Humidité 93%
Pression 1021 hPa
Visibilité: 9000 m

METAR: EDVK 030220Z AUTO 06006KT 9000 // FEW011/// SCT034/// BKN050/// M01/M02 Q1021

Heure: 03:40 (02:40 UTC)

Prévision

Le bulletin a été fait il y a 9 heures et 40 minutes, à 17:00 UTC
Prévision valable du 02 à 18 UTC au 03 à 03 UTC
Vent 8 kt de nord-est
Visibilité: 7000 m
Quelques nuages à une hauteur de 600 ft
Ciel couvert à une hauteur de 1200 ft
Probabilité 40% :
Temporairement
du 02 à 18 UTC au 03 à 03 UTC
Visibilité: 3000 m
Nuages fragmentés à une hauteur de 500 ft
neige, brume

TAF: EDVK 021700Z 0218/0303 05008KT 7000 FEW006 OVC012 PROB40 TEMPO 0218/0303 3000 SN BR BKN005

Observations et prévisions météorologiques de plus de 4000 aéroports (messages METAR et TAF).

Les stations disponibles sont représentées par des disques jaunes et rouges sur la carte.

Passer la souris dessus pour voir le nom de la station.

Cliquer dessus pour voir les observations et prévisions météorologiques.

Pour changer de carte: cliquez sur les boutons verts avec une croix noire pour zoomer, sur le bouton vert avec un tiret pour effectuer un zoom arrière, ou sur les flèches vertes pour les cartes adjacentes.


METAR-TAF: